Time;durP1;ratioP1;P1;durP2;ratioP2;P2;SDS_P1;SDS_P2;PMS_P1;PMS_P2;Temp;Humidity;BMP_temperature;BMP_pressure;BME280_temperature;BME280_humidity;BME280_pressure;Samples;Min_cycle;Max_cycle;Signal;HPM_P1;HPM_P2
2022/05/03 00:00:10;;;;;;;10.15;2.95;;;;;;;;;;2586734;23;19992;-79
2022/05/03 00:01:25;;;;;;;2.90;2.38;;;;;;;;;;2586560;22;20401;-78
2022/05/03 00:02:46;;;;;;;8.35;2.72;;;;;;;;;;2586632;23;19996;-78
2022/05/03 00:04:39;;;;;;;6.40;2.65;;;;;;;;;;2568953;23;20020;-77
2022/05/03 00:06:07;;;;;;;4.95;2.35;;;;;;;;;;2559173;23;20025;-77
2022/05/03 00:07:44;;;;;;;3.97;2.80;;;;;;;;;;2560606;23;20079;-78
2022/05/03 00:09:02;;;;;;;4.60;2.80;;;;;;;;;;2556247;23;20067;-78
2022/05/03 00:10:09;;;;;;;4.43;3.00;;;;;;;;;;2560537;23;20420;-77
2022/05/03 00:11:26;;;;;;;5.68;3.13;;;;;;;;;;2571046;22;20000;-77
2022/05/03 00:12:38;;;;;;;4.65;3.25;;;;;;;;;;2586603;23;19992;-78
2022/05/03 00:14:11;;;;;;;5.30;3.22;;;;;;;;;;2586546;23;20075;-77
2022/05/03 00:15:13;;;;;;;3.08;2.72;;;;;;;;;;2569496;23;20003;-77
2022/05/03 00:16:17;;;;;;;5.50;2.88;;;;;;;;;;2573634;23;20012;-78
2022/05/03 00:17:18;;;;;;;5.57;3.35;;;;;;;;;;2569165;23;20481;-78
2022/05/03 00:18:19;;;;;;;4.18;3.30;;;;;;;;;;2556839;23;20001;-78
2022/05/03 00:19:21;;;;;;;;;;;;;;;;;;2573933;23;20132;-78
2022/05/03 00:20:29;;;;;;;4.20;3.15;;;;;;;;;;2569032;23;19912;-78
2022/05/03 00:22:50;;;;;;;4.63;2.63;;;;;;;;;;2582409;23;20002;-78
2022/05/03 00:23:54;;;;;;;5.97;3.20;;;;;;;;;;2569068;23;19992;-78
2022/05/03 00:25:00;;;;;;;4.22;2.83;;;;;;;;;;2573979;23;19996;-78
2022/05/03 00:26:03;;;;;;;4.05;2.97;;;;;;;;;;2573314;23;19997;-78
2022/05/03 00:27:07;;;;;;;4.85;3.08;;;;;;;;;;2569586;23;20008;-78
2022/05/03 00:28:10;;;;;;;4.15;3.15;;;;;;;;;;2585998;22;20010;-78
2022/05/03 00:29:14;;;;;;;4.63;3.13;;;;;;;;;;2586466;23;20425;-78
2022/05/03 00:30:22;;;;;;;6.13;3.70;;;;;;;;;;2586549;23;20398;-78
2022/05/03 00:31:24;;;;;;;4.07;2.70;;;;;;;;;;2569031;23;20000;-78
2022/05/03 00:32:26;;;;;;;4.07;3.10;;;;;;;;;;2573691;23;20063;-78
2022/05/03 00:33:29;;;;;;;4.47;3.00;;;;;;;;;;2586528;23;20003;-78
2022/05/03 00:34:33;;;;;;;5.50;3.50;;;;;;;;;;2569263;23;20470;-78
2022/05/03 00:35:34;;;;;;;4.30;2.92;;;;;;;;;;2574476;23;19988;-78
2022/05/03 00:36:35;;;;;;;;;;;;;;;;;;2569621;23;20016;-78
2022/05/03 00:37:39;;;;;;;3.87;2.53;;;;;;;;;;2573489;23;20327;-78
2022/05/03 00:38:42;;;;;;;3.50;2.83;;;;;;;;;;2569370;23;20003;-78
2022/05/03 00:39:43;;;;;;;4.30;2.78;;;;;;;;;;2574114;23;19989;-78
2022/05/03 00:40:56;;;;;;;;;;;;;;;;;;2587185;22;19988;-79
2022/05/03 00:42:08;;;;;;;6.05;3.20;;;;;;;;;;2573096;23;19908;-78
2022/05/03 00:43:19;;;;;;;2.63;2.40;;;;;;;;;;2571532;23;20083;-78
2022/05/03 00:45:03;;;;;;;6.32;3.45;;;;;;;;;;2569305;23;20001;-78
2022/05/03 00:46:13;;;;;;;3.50;2.65;;;;;;;;;;2577586;23;20054;-78
2022/05/03 00:47:19;;;;;;;3.60;3.30;;;;;;;;;;2569312;23;20000;-78
2022/05/03 00:48:44;;;;;;;4.32;3.20;;;;;;;;;;2574575;23;20000;-78
2022/05/03 00:50:11;;;;;;;7.65;2.97;;;;;;;;;;2586560;23;20015;-79
2022/05/03 00:51:28;;;;;;;4.32;3.20;;;;;;;;;;2569000;23;20067;-78
2022/05/03 00:52:51;;;;;;;5.57;2.78;;;;;;;;;;2576943;23;20067;-79
2022/05/03 00:54:00;;;;;;;4.78;3.20;;;;;;;;;;2581560;23;20034;-79
2022/05/03 00:55:22;;;;;;;3.83;2.88;;;;;;;;;;2568990;23;20003;-79
2022/05/03 00:56:44;;;;;;;7.18;3.13;;;;;;;;;;2577770;23;20050;-79
2022/05/03 00:58:03;;;;;;;3.75;2.67;;;;;;;;;;2586369;23;19988;-79
2022/05/03 00:59:26;;;;;;;3.47;3.00;;;;;;;;;;2568960;23;20051;-79
2022/05/03 01:00:28;;;;;;;4.13;3.22;;;;;;;;;;2577925;23;20315;-79
2022/05/03 01:01:52;;;;;;;5.07;3.15;;;;;;;;;;2581575;23;20158;-79
2022/05/03 01:03:20;;;;;;;3.88;3.05;;;;;;;;;;2586453;23;20600;-79
2022/05/03 01:04:34;;;;;;;7.13;3.25;;;;;;;;;;2586177;23;20003;-78
2022/05/03 01:05:55;;;;;;;5.47;2.78;;;;;;;;;;2586354;23;20007;-78
2022/05/03 01:07:14;;;;;;;;;;;;;;;;;;2587056;23;20338;-79
2022/05/03 01:08:59;;;;;;;4.10;2.40;;;;;;;;;;2587088;23;19919;-79
2022/05/03 01:10:06;;;;;;;5.60;2.53;;;;;;;;;;2569245;23;20008;-79
2022/05/03 01:11:37;;;;;;;5.03;2.85;;;;;;;;;;2574822;23;20446;-79
2022/05/03 01:13:02;;;;;;;3.92;2.90;;;;;;;;;;2569772;23;20327;-79
2022/05/03 01:14:10;;;;;;;3.47;2.70;;;;;;;;;;2569627;23;20343;-79
2022/05/03 01:15:18;;;;;;;4.50;2.80;;;;;;;;;;2575633;23;20303;-80
2022/05/03 01:16:48;;;;;;;4.25;2.83;;;;;;;;;;2587031;23;20031;-80
2022/05/03 01:18:21;;;;;;;4.80;2.63;;;;;;;;;;2582281;23;19996;-80
2022/05/03 01:19:39;;;;;;;4.38;2.40;;;;;;;;;;2569715;23;20482;-80
2022/05/03 01:21:21;;;;;;;4.65;2.60;;;;;;;;;;2565241;23;20024;-80
2022/05/03 01:23:02;;;;;;;3.28;2.47;;;;;;;;;;2529152;23;20029;-80
2022/05/03 01:24:28;;;;;;;3.40;2.58;;;;;;;;;;2578479;23;20095;-80
2022/05/03 01:25:44;;;;;;;2.80;2.17;;;;;;;;;;2569997;23;20418;-80
2022/05/03 01:27:10;;;;;;;7.38;3.17;;;;;;;;;;2577455;23;19992;-80
2022/05/03 01:28:31;;;;;;;3.97;2.08;;;;;;;;;;2569915;23;20474;-80
2022/05/03 01:29:33;;;;;;;7.53;2.90;;;;;;;;;;2570167;23;20091;-80
2022/05/03 01:30:35;;;;;;;4.57;2.90;;;;;;;;;;2570457;23;20021;-80
2022/05/03 01:31:36;;;;;;;4.00;2.78;;;;;;;;;;2569581;23;19995;-80
2022/05/03 01:32:43;;;;;;;;;;;;;;;;;;2570668;23;20003;-80
2022/05/03 01:33:47;;;;;;;3.58;2.53;;;;;;;;;;2569786;23;20133;-81
2022/05/03 01:34:52;;;;;;;8.57;3.25;;;;;;;;;;2574649;23;20064;-81
2022/05/03 01:35:57;;;;;;;3.30;2.30;;;;;;;;;;2587167;23;19987;-80
2022/05/03 01:37:09;;;;;;;4.72;2.85;;;;;;;;;;2570205;23;19997;-81
2022/05/03 01:38:45;;;;;;;4.40;2.63;;;;;;;;;;2572128;23;20000;-81
2022/05/03 01:39:54;;;;;;;5.72;3.53;;;;;;;;;;2563513;23;19993;-82
2022/05/03 01:41:29;;;;;;;6.63;3.08;;;;;;;;;;2586911;22;20011;-80
2022/05/03 01:42:51;;;;;;;5.05;2.78;;;;;;;;;;2571448;23;20141;-81
2022/05/03 01:44:30;;;;;;;6.50;3.38;;;;;;;;;;2573979;23;19996;-80
2022/05/03 01:45:37;;;;;;;4.78;2.67;;;;;;;;;;2570082;23;19996;-80
2022/05/03 01:46:38;;;;;;;3.38;2.30;;;;;;;;;;2575636;23;19997;-80
2022/05/03 01:47:48;;;;;;;4.35;2.47;;;;;;;;;;2586829;23;20302;-79
2022/05/03 01:51:05;;;;;;;5.95;3.15;;;;;;;;;;2585648;23;19995;-80
2022/05/03 01:52:49;;;;;;;4.63;3.05;;;;;;;;;;2587170;23;19992;-80
2022/05/03 01:54:07;;;;;;;3.83;2.95;;;;;;;;;;2581815;23;20414;-80
2022/05/03 01:55:22;;;;;;;5.80;3.40;;;;;;;;;;2586917;23;20007;-80
2022/05/03 01:56:29;;;;;;;4.65;3.17;;;;;;;;;;2569936;23;20300;-80
2022/05/03 01:57:42;;;;;;;4.35;3.22;;;;;;;;;;2575397;23;19992;-80
2022/05/03 01:59:10;;;;;;;4.47;2.85;;;;;;;;;;2573494;23;20427;-80
2022/05/03 02:00:14;;;;;;;6.32;3.53;;;;;;;;;;2579756;23;20461;-80
2022/05/03 02:01:36;;;;;;;7.50;3.00;;;;;;;;;;2586844;22;20003;-79
2022/05/03 02:02:36;;;;;;;;;;;;;;;;;;2587433;23;19992;-80
2022/05/03 02:03:53;;;;;;;4.10;2.73;;;;;;;;;;2587262;23;19915;-80
2022/05/03 02:05:20;;;;;;;4.85;2.58;;;;;;;;;;2586761;23;20666;-81
2022/05/03 02:06:45;;;;;;;3.90;2.65;;;;;;;;;;2573877;23;20075;-80
2022/05/03 02:07:48;;;;;;;4.90;3.67;;;;;;;;;;2579206;23;20065;-81
2022/05/03 02:09:03;;;;;;;4.55;3.10;;;;;;;;;;2587365;23;20075;-80
2022/05/03 02:10:18;;;;;;;3.83;2.88;;;;;;;;;;2587107;23;20331;-80
2022/05/03 02:11:30;;;;;;;4.70;3.20;;;;;;;;;;2586996;22;20011;-81
2022/05/03 02:12:32;;;;;;;3.90;2.97;;;;;;;;;;2587058;23;19999;-81
2022/05/03 02:15:13;;;;;;;3.90;2.95;;;;;;;;;;2586903;23;19996;-80
2022/05/03 02:16:14;;;;;;;5.35;3.28;;;;;;;;;;2586877;23;20335;-80
2022/05/03 02:17:46;;;;;;;5.40;2.88;;;;;;;;;;2586967;23;20016;-80
2022/05/03 02:18:59;;;;;;;;;;;;;;;;;;2586308;23;19988;-80
2022/05/03 02:20:28;;;;;;;3.00;2.70;;;;;;;;;;2557200;23;19959;-80
2022/05/03 02:21:53;;;;;;;3.83;2.58;;;;;;;;;;2562531;23;20016;-80
2022/05/03 02:23:13;;;;;;;4.70;3.10;;;;;;;;;;2578993;23;20064;-79
2022/05/03 02:24:42;;;;;;;5.75;3.88;;;;;;;;;;2587264;23;20422;-80
2022/05/03 02:26:12;;;;;;;5.25;2.97;;;;;;;;;;2587215;23;19988;-80
2022/05/03 02:27:16;;;;;;;5.90;3.53;;;;;;;;;;2547616;23;20001;-80
2022/05/03 02:28:38;;;;;;;5.57;3.22;;;;;;;;;;2587096;23;20292;-80
2022/05/03 02:29:47;;;;;;;4.65;2.92;;;;;;;;;;2569568;23;20117;-80
2022/05/03 02:30:53;;;;;;;4.32;2.95;;;;;;;;;;2575294;22;20006;-80
2022/05/03 02:32:11;;;;;;;3.80;2.97;;;;;;;;;;2586819;23;20402;-79
2022/05/03 02:33:43;;;;;;;4.60;3.42;;;;;;;;;;2586817;23;20026;-79
2022/05/03 02:34:54;;;;;;;7.88;3.03;;;;;;;;;;2551505;23;20366;-79
2022/05/03 02:35:58;;;;;;;4.53;2.92;;;;;;;;;;2559026;23;20369;-79
2022/05/03 02:37:28;;;;;;;5.28;3.08;;;;;;;;;;2574526;23;19996;-79
2022/05/03 02:38:40;;;;;;;3.65;3.03;;;;;;;;;;2569455;23;20031;-79
2022/05/03 02:40:15;;;;;;;4.82;2.90;;;;;;;;;;2576120;23;19989;-79
2022/05/03 02:41:20;;;;;;;5.82;3.47;;;;;;;;;;2575809;22;20537;-78
2022/05/03 02:42:25;;;;;;;11.48;3.60;;;;;;;;;;2586859;23;20078;-78
2022/05/03 02:43:27;;;;;;;4.78;3.63;;;;;;;;;;2586859;23;20368;-78
2022/05/03 02:44:31;;;;;;;5.18;3.55;;;;;;;;;;2586846;23;20031;-78
2022/05/03 02:46:10;;;;;;;5.30;3.47;;;;;;;;;;2569885;23;20023;-79
2022/05/03 02:47:14;;;;;;;4.68;3.20;;;;;;;;;;2577323;23;20011;-79
2022/05/03 02:48:40;;;;;;;4.32;3.58;;;;;;;;;;2587008;23;20020;-79
2022/05/03 02:49:57;;;;;;;4.97;3.33;;;;;;;;;;2568999;23;20348;-79
2022/05/03 02:51:07;;;;;;;3.70;2.90;;;;;;;;;;2577743;22;20072;-79
2022/05/03 02:52:33;;;;;;;5.22;3.72;;;;;;;;;;2569319;23;20069;-79
2022/05/03 02:53:49;;;;;;;4.22;3.30;;;;;;;;;;2579607;23;19991;-79
2022/05/03 02:55:18;;;;;;;4.50;2.80;;;;;;;;;;2573908;23;19996;-79
2022/05/03 02:56:49;;;;;;;4.25;3.25;;;;;;;;;;2575400;23;20435;-79
2022/05/03 02:58:14;;;;;;;3.42;2.80;;;;;;;;;;2573869;23;20386;-79
2022/05/03 03:01:49;;;;;;;7.70;3.17;;;;;;;;;;2582454;22;20075;-79
2022/05/03 03:03:11;;;;;;;6.05;3.40;;;;;;;;;;2586915;23;20071;-79
2022/05/03 03:04:27;;;;;;;4.28;3.13;;;;;;;;;;2587214;23;20019;-79
2022/05/03 03:05:29;;;;;;;3.95;3.33;;;;;;;;;;2569345;23;20005;-79
2022/05/03 03:06:37;;;;;;;4.45;3.25;;;;;;;;;;2574162;23;19997;-79
2022/05/03 03:07:46;;;;;;;5.57;3.30;;;;;;;;;;2586925;23;20432;-79
2022/05/03 03:08:56;;;;;;;3.88;3.17;;;;;;;;;;2587405;23;19992;-79
2022/05/03 03:10:03;;;;;;;4.75;3.25;;;;;;;;;;2586999;23;20007;-79
2022/05/03 03:11:05;;;;;;;4.88;3.38;;;;;;;;;;2585197;22;20490;-79
2022/05/03 03:12:35;;;;;;;5.35;3.47;;;;;;;;;;2587604;23;20072;-79
2022/05/03 03:14:10;;;;;;;4.40;3.08;;;;;;;;;;2587362;23;19992;-79
2022/05/03 03:15:13;;;;;;;5.75;3.53;;;;;;;;;;2569860;23;20004;-79
2022/05/03 03:16:14;;;;;;;6.38;3.60;;;;;;;;;;2574499;23;20143;-79
2022/05/03 03:17:28;;;;;;;4.35;3.22;;;;;;;;;;2586757;23;20030;-78
2022/05/03 03:18:40;;;;;;;4.22;3.47;;;;;;;;;;2569311;23;20001;-78
2022/05/03 03:19:52;;;;;;;5.03;3.30;;;;;;;;;;2576381;23;20003;-78
2022/05/03 03:21:00;;;;;;;3.35;2.78;;;;;;;;;;2569044;23;20007;-78
2022/05/03 03:22:03;;;;;;;4.25;3.50;;;;;;;;;;2574858;23;19992;-79
2022/05/03 03:23:05;;;;;;;3.15;2.47;;;;;;;;;;2586704;23;19995;-78
2022/05/03 03:24:08;;;;;;;4.53;3.17;;;;;;;;;;2569681;23;20238;-78
2022/05/03 03:25:11;;;;;;;5.80;3.55;;;;;;;;;;2574036;23;20002;-78
2022/05/03 03:26:17;;;;;;;3.75;2.92;;;;;;;;;;2586794;23;19998;-78
2022/05/03 03:27:21;;;;;;;5.13;3.30;;;;;;;;;;2569325;23;20001;-77
2022/05/03 03:28:24;;;;;;;5.05;3.08;;;;;;;;;;2574292;23;19993;-77
2022/05/03 03:29:31;;;;;;;7.90;2.88;;;;;;;;;;2586561;23;20079;-77
2022/05/03 03:30:31;;;;;;;6.88;3.30;;;;;;;;;;2586998;23;19992;-79
2022/05/03 03:31:32;;;;;;;;;;;;;;;;;;2582435;22;20000;-77
2022/05/03 03:32:36;;;;;;;3.58;2.75;;;;;;;;;;2586316;23;19911;-78
2022/05/03 03:33:38;;;;;;;4.95;3.60;;;;;;;;;;2569299;23;20284;-77
2022/05/03 03:34:42;;;;;;;4.70;3.63;;;;;;;;;;2557005;23;20027;-78
2022/05/03 03:35:44;;;;;;;5.95;3.80;;;;;;;;;;2557748;23;19997;-77
2022/05/03 03:36:51;;;;;;;6.15;4.32;;;;;;;;;;2556931;23;20447;-77
2022/05/03 03:37:58;;;;;;;5.53;3.65;;;;;;;;;;2574684;23;20314;-78
2022/05/03 03:39:01;;;;;;;5.75;3.55;;;;;;;;;;2586791;23;19988;-78
2022/05/03 03:40:03;;;;;;;8.85;4.03;;;;;;;;;;2586634;23;20426;-77
2022/05/03 03:41:04;;;;;;;4.57;3.58;;;;;;;;;;2568973;23;20040;-77
2022/05/03 03:42:07;;;;;;;;;;;;;;;;;;2569733;23;20008;-78
2022/05/03 03:43:08;;;;;;;4.88;3.55;;;;;;;;;;2569286;23;19919;-78
2022/05/03 03:44:08;;;;;;;;;;;;;;;;;;2574002;23;20350;-78
2022/05/03 03:45:13;;;;;;;5.43;3.20;;;;;;;;;;2569160;23;20297;-78
2022/05/03 03:46:34;;;;;;;4.07;3.22;;;;;;;;;;2570182;23;19996;-78
2022/05/03 03:47:41;;;;;;;4.97;2.90;;;;;;;;;;2569077;23;20139;-78
2022/05/03 03:48:42;;;;;;;4.72;3.55;;;;;;;;;;2574950;23;19989;-79
2022/05/03 03:49:54;;;;;;;3.95;3.30;;;;;;;;;;2586423;23;19992;-79
2022/05/03 03:50:58;;;;;;;5.90;3.83;;;;;;;;;;2586633;22;20015;-79
2022/05/03 03:52:04;;;;;;;5.72;3.70;;;;;;;;;;2569441;23;20490;-79
2022/05/03 03:53:06;;;;;;;11.40;3.75;;;;;;;;;;2574773;23;20020;-80
2022/05/03 03:54:09;;;;;;;5.55;3.67;;;;;;;;;;2587110;23;20461;-77
2022/05/03 03:55:11;;;;;;;6.40;3.80;;;;;;;;;;2586811;23;20407;-79
2022/05/03 03:56:12;;;;;;;4.28;3.55;;;;;;;;;;2569197;23;20015;-82
2022/05/03 03:57:13;;;;;;;;;;;;;;;;;;2569703;23;20024;-76
2022/05/03 03:58:15;;;;;;;5.70;4.15;;;;;;;;;;2585977;23;19903;-79
2022/05/03 04:00:39;;;;;;;6.18;4.10;;;;;;;;;;2573904;23;20050;-77
2022/05/03 04:01:41;;;;;;;4.88;3.30;;;;;;;;;;2569052;23;20018;-78
2022/05/03 04:02:59;;;;;;;3.67;2.88;;;;;;;;;;2573811;23;20071;-77
2022/05/03 04:04:15;;;;;;;;;;;;;;;;;;;;;
2022/05/03 04:05:27;;;;;;;3.13;2.80;;;;;;;;;;2576646;23;20035;-77
2022/05/03 04:06:27;;;;;;;;;;;;;;;;;;2586963;23;20453;-78
2022/05/03 04:07:28;;;;;;;3.58;2.78;;;;;;;;;;2586617;23;19937;-77
2022/05/03 04:10:07;;;;;;;6.07;3.33;;;;;;;;;;2577362;23;20366;-77
2022/05/03 04:11:14;;;;;;;;;;;;;;;;;;2586944;22;20071;-77
2022/05/03 04:12:19;;;;;;;5.90;3.35;;;;;;;;;;2568863;23;20245;-78
2022/05/03 04:13:27;;;;;;;5.57;3.28;;;;;;;;;;2573999;23;20086;-77
2022/05/03 04:14:35;;;;;;;6.97;3.95;;;;;;;;;;2586549;23;20000;-77
2022/05/03 04:15:36;;;;;;;5.30;2.80;;;;;;;;;;2586521;23;19996;-78
2022/05/03 04:17:00;;;;;;;7.70;3.97;;;;;;;;;;2573820;23;20382;-77
2022/05/03 04:18:10;;;;;;;4.10;3.22;;;;;;;;;;2578987;23;19999;-77
2022/05/03 04:19:11;;;;;;;5.45;4.18;;;;;;;;;;2568935;23;20024;-77
2022/05/03 04:20:13;;;;;;;6.97;4.15;;;;;;;;;;2573379;23;20058;-77
2022/05/03 04:21:21;;;;;;;7.25;4.05;;;;;;;;;;2586320;22;20407;-77
2022/05/03 04:22:27;;;;;;;6.35;4.45;;;;;;;;;;2573086;23;20001;-76
2022/05/03 04:23:30;;;;;;;5.18;3.58;;;;;;;;;;2574468;23;20004;-77
2022/05/03 04:24:30;;;;;;;6.60;4.40;;;;;;;;;;2569022;23;20374;-77
2022/05/03 04:25:33;;;;;;;;;;;;;;;;;;2574123;23;20059;-77
2022/05/03 04:26:36;;;;;;;7.03;4.45;;;;;;;;;;2569375;23;19907;-77
2022/05/03 04:27:39;;;;;;;5.32;3.55;;;;;;;;;;2574262;23;20404;-77
2022/05/03 04:28:40;;;;;;;6.88;3.97;;;;;;;;;;2586373;23;20003;-76
2022/05/03 04:29:43;;;;;;;6.80;3.60;;;;;;;;;;2568839;23;20079;-78
2022/05/03 04:30:46;;;;;;;6.40;3.90;;;;;;;;;;2573207;22;19992;-76
2022/05/03 04:31:47;;;;;;;6.13;4.22;;;;;;;;;;2569026;23;20020;-76
2022/05/03 04:32:52;;;;;;;;;;;;;;;;;;2573580;23;20000;-77
2022/05/03 04:33:53;;;;;;;6.22;4.22;;;;;;;;;;2568891;23;19998;-76
2022/05/03 04:34:54;;;;;;;6.30;3.97;;;;;;;;;;2561236;23;20005;-78
2022/05/03 04:35:56;;;;;;;;;;;;;;;;;;2570141;23;20451;-79
2022/05/03 04:36:57;;;;;;;5.95;3.70;;;;;;;;;;2569272;23;19978;-77
2022/05/03 04:38:08;;;;;;;;;;;;;;;;;;;;;
2022/05/03 04:39:11;;;;;;;7.25;4.75;;;;;;;;;;2586098;23;19999;-77
2022/05/03 04:40:14;;;;;;;4.43;3.60;;;;;;;;;;2586685;23;20065;-76
2022/05/03 04:41:17;;;;;;;5.82;4.70;;;;;;;;;;2585782;22;19996;-76
2022/05/03 04:42:17;;;;;;;6.80;4.22;;;;;;;;;;2582813;23;20131;-78
2022/05/03 04:43:18;;;;;;;;;;;;;;;;;;2586643;23;20016;-77
2022/05/03 04:44:18;;;;;;;4.23;3.23;;;;;;;;;;2585982;23;20223;-76
2022/05/03 04:45:18;;;;;;;5.47;3.55;;;;;;;;;;2586144;23;20046;-77
2022/05/03 04:46:20;;;;;;;7.40;3.95;;;;;;;;;;2568705;23;20391;-79
2022/05/03 04:47:21;;;;;;;7.57;5.10;;;;;;;;;;2557421;23;20495;-78
2022/05/03 04:48:21;;;;;;;;;;;;;;;;;;2570512;23;19996;-78
2022/05/03 04:49:22;;;;;;;8.40;4.53;;;;;;;;;;2569263;23;19950;-78
2022/05/03 04:50:25;;;;;;;7.07;4.63;;;;;;;;;;2573287;23;19992;-78
2022/05/03 04:51:25;;;;;;;8.23;4.47;;;;;;;;;;2586622;22;20061;-75
2022/05/03 04:52:26;;;;;;;;;;;;;;;;;;2587095;23;20037;-78
2022/05/03 04:53:26;;;;;;;7.43;5.00;;;;;;;;;;2586159;23;19908;-78
2022/05/03 04:54:27;;;;;;;8.23;4.82;;;;;;;;;;2582876;23;20007;-76
2022/05/03 04:55:27;;;;;;;6.55;4.25;;;;;;;;;;2586735;23;20051;-77
2022/05/03 04:56:27;;;;;;;;;;;;;;;;;;2586749;23;20000;-78
2022/05/03 04:57:28;;;;;;;5.50;4.53;;;;;;;;;;2586244;23;19907;-76
2022/05/03 04:58:28;;;;;;;6.88;4.50;;;;;;;;;;2586009;23;19996;-78
2022/05/03 04:59:29;;;;;;;;;;;;;;;;;;2569328;23;19997;-76
2022/05/03 05:00:29;;;;;;;5.07;3.73;;;;;;;;;;2568816;23;20029;-78
2022/05/03 05:01:30;;;;;;;5.25;4.20;;;;;;;;;;2585578;23;20094;-78
2022/05/03 05:02:32;;;;;;;5.07;3.97;;;;;;;;;;2568959;23;20027;-78
2022/05/03 05:03:32;;;;;;;4.32;3.88;;;;;;;;;;2568816;23;20445;-78
2022/05/03 05:04:33;;;;;;;;;;;;;;;;;;2585933;23;20116;-77
2022/05/03 05:05:33;;;;;;;6.27;3.47;;;;;;;;;;2586122;23;19909;-78
2022/05/03 05:06:33;;;;;;;6.15;3.85;;;;;;;;;;2569074;23;19997;-79
2022/05/03 05:07:34;;;;;;;;;;;;;;;;;;2569440;23;20076;-78
2022/05/03 05:08:34;;;;;;;7.43;3.55;;;;;;;;;;2585466;23;19957;-75
2022/05/03 05:09:34;;;;;;;6.72;4.15;;;;;;;;;;2586212;23;20391;-77
2022/05/03 05:10:35;;;;;;;7.75;4.40;;;;;;;;;;2586073;23;20019;-77
2022/05/03 05:11:35;;;;;;;5.80;3.70;;;;;;;;;;2568571;23;20323;-80
2022/05/03 05:12:38;;;;;;;;;;;;;;;;;;2569809;23;19993;-79
2022/05/03 05:13:39;;;;;;;4.72;3.25;;;;;;;;;;2581340;23;19972;-82
2022/05/03 05:14:42;;;;;;;7.55;3.92;;;;;;;;;;2568817;23;20089;-79
2022/05/03 05:16:45;;;;;;;5.40;3.55;;;;;;;;;;2568469;23;20311;-77
2022/05/03 05:17:48;;;;;;;4.18;3.08;;;;;;;;;;2532992;23;20009;-77
2022/05/03 05:18:49;;;;;;;5.40;3.40;;;;;;;;;;2580860;23;19992;-80
2022/05/03 05:19:52;;;;;;;6.15;4.05;;;;;;;;;;2569565;23;19997;-77
2022/05/03 05:20:53;;;;;;;7.07;4.03;;;;;;;;;;2573471;23;20367;-78
2022/05/03 05:21:53;;;;;;;;;;;;;;;;;;2586581;23;20027;-76
2022/05/03 05:22:54;;;;;;;5.20;3.23;;;;;;;;;;2586091;23;19959;-77
2022/05/03 05:23:54;;;;;;;4.25;3.78;;;;;;;;;;2585939;23;20109;-78
2022/05/03 05:24:55;;;;;;;;;;;;;;;;;;2587190;23;20001;-78
2022/05/03 05:25:55;;;;;;;4.97;3.30;;;;;;;;;;2586842;23;19934;-78
2022/05/03 05:26:56;;;;;;;4.30;3.90;;;;;;;;;;2586320;23;20007;-77
2022/05/03 05:27:56;;;;;;;4.45;3.20;;;;;;;;;;2586129;23;20053;-80
2022/05/03 05:28:58;;;;;;;;;;;;;;;;;;2586847;23;20061;-78
2022/05/03 05:29:58;;;;;;;5.47;3.50;;;;;;;;;;2586240;23;19911;-77
2022/05/03 05:30:58;;;;;;;;;;;;;;;;;;2586549;22;19996;-84
2022/05/03 05:31:59;;;;;;;3.92;3.22;;;;;;;;;;2569357;23;19904;-84
2022/05/03 05:32:59;;;;;;;4.20;3.13;;;;;;;;;;2573390;23;19997;-82
2022/05/03 05:34:00;;;;;;;3.55;3.05;;;;;;;;;;2586558;23;20007;-81
2022/05/03 05:35:01;;;;;;;9.32;3.58;;;;;;;;;;2582373;23;20422;-80
2022/05/03 05:36:01;;;;;;;5.20;3.55;;;;;;;;;;2584214;23;20038;-78
2022/05/03 05:37:02;;;;;;;;;;;;;;;;;;2586997;23;19996;-79
2022/05/03 05:38:03;;;;;;;3.43;2.90;;;;;;;;;;2569124;23;19903;-83
2022/05/03 05:39:03;;;;;;;;;;;;;;;;;;2573694;23;20076;-78
2022/05/03 05:40:05;;;;;;;3.83;3.20;;;;;;;;;;2582735;23;19914;-78
2022/05/03 05:41:13;;;;;;;8.00;3.42;;;;;;;;;;2586224;22;20079;-80
2022/05/03 05:42:16;;;;;;;5.28;3.40;;;;;;;;;;2586162;23;20057;-78
2022/05/03 05:43:16;;;;;;;4.07;3.38;;;;;;;;;;2568791;23;20427;-78
2022/05/03 05:44:17;;;;;;;;;;;;;;;;;;2573829;23;19997;-78
2022/05/03 05:45:17;;;;;;;5.83;3.90;;;;;;;;;;2569514;23;19985;-78
2022/05/03 05:46:20;;;;;;;;;;;;;;;;;;2574152;23;19992;-81
2022/05/03 05:47:22;;;;;;;6.85;3.75;;;;;;;;;;2586453;23;19957;-79
2022/05/03 05:48:22;;;;;;;4.53;3.75;;;;;;;;;;2581350;23;20004;-78
2022/05/03 05:49:25;;;;;;;;;;;;;;;;;;2586656;23;20000;-78
2022/05/03 05:50:33;;;;;;;8.77;4.25;;;;;;;;;;2586351;23;19935;-78
2022/05/03 05:53:31;;;;;;;6.57;5.18;;;;;;;;;;2586354;22;20284;-81
2022/05/03 05:53:43;;;;;;;;;;;;;;;;;;;;;
2022/05/03 05:56:09;;;;;;;4.03;3.55;;;;;;;;;;2574908;23;20035;-78
2022/05/03 05:57:12;;;;;;;5.28;4.38;;;;;;;;;;2582247;23;20007;-77
2022/05/03 05:58:15;;;;;;;8.23;4.60;;;;;;;;;;2569632;23;20000;-81
2022/05/03 05:59:20;;;;;;;7.55;5.38;;;;;;;;;;2574635;23;20012;-79
2022/05/03 06:00:33;;;;;;;7.32;4.50;;;;;;;;;;2587298;23;19996;-81
2022/05/03 06:03:29;;;;;;;5.75;4.25;;;;;;;;;;2540004;23;20013;-83
2022/05/03 06:05:02;;;;;;;8.48;3.97;;;;;;;;;;2587364;23;20006;-81
2022/05/03 06:06:27;;;;;;;6.88;3.72;;;;;;;;;;2570286;23;20079;-83
2022/05/03 06:07:53;;;;;;;4.65;3.40;;;;;;;;;;2564554;23;20031;-83
2022/05/03 06:09:01;;;;;;;5.30;4.13;;;;;;;;;;2569680;23;20004;-83
2022/05/03 06:10:14;;;;;;;5.13;3.35;;;;;;;;;;2575914;23;20071;-80
2022/05/03 06:11:37;;;;;;;5.47;3.65;;;;;;;;;;2587178;22;20003;-83
2022/05/03 06:12:42;;;;;;;5.93;4.25;;;;;;;;;;2587221;23;20053;-80
2022/05/03 06:14:09;;;;;;;7.65;4.40;;;;;;;;;;2585776;23;19999;-80
2022/05/03 06:15:20;;;;;;;;;;;;;;;;;;;;;
2022/05/03 06:16:21;;;;;;;5.75;3.80;;;;;;;;;;2585867;23;20338;-81
2022/05/03 06:17:31;;;;;;;;;;;;;;;;;;2582068;23;20006;-81
2022/05/03 06:19:01;;;;;;;;;;;;;;;;;;;;;
2022/05/03 06:20:13;;;;;;;6.20;3.70;;;;;;;;;;2580717;23;20007;-82
2022/05/03 06:21:40;;;;;;;6.80;4.10;;;;;;;;;;2568439;23;19996;-83
2022/05/03 06:22:50;;;;;;;4.13;3.72;;;;;;;;;;2578436;23;19996;-82
2022/05/03 06:24:11;;;;;;;;;;;;;;;;;;;;;
2022/05/03 06:25:23;;;;;;;5.53;3.97;;;;;;;;;;2587370;23;20004;-82
2022/05/03 06:26:44;;;;;;;5.82;3.55;;;;;;;;;;2587522;23;19999;-82
2022/05/03 06:27:53;;;;;;;4.82;3.38;;;;;;;;;;2587478;23;20365;-84
2022/05/03 06:28:56;;;;;;;5.72;3.47;;;;;;;;;;2582584;23;20022;-85
2022/05/03 06:29:56;;;;;;;6.25;4.55;;;;;;;;;;2586650;23;19996;-80
2022/05/03 06:31:07;;;;;;;;;;;;;;;;;;2587731;22;20020;-80
2022/05/03 06:33:55;;;;;;;7.28;5.72;;;;;;;;;;2582843;23;20008;-83
2022/05/03 06:35:04;;;;;;;7.30;5.13;;;;;;;;;;2586809;23;20000;-82
2022/05/03 06:36:15;;;;;;;7.78;4.53;;;;;;;;;;2587057;23;20383;-83
2022/05/03 06:37:58;;;;;;;4.25;3.67;;;;;;;;;;2586851;23;20068;-83
2022/05/03 06:39:01;;;;;;;6.25;4.40;;;;;;;;;;2571218;23;20000;-82
2022/05/03 06:40:18;;;;;;;7.82;4.55;;;;;;;;;;2586776;23;19996;-81
2022/05/03 06:41:24;;;;;;;6.82;3.85;;;;;;;;;;2582431;22;20395;-82
2022/05/03 06:42:54;;;;;;;;;;;;;;;;;;;;;
2022/05/03 06:44:00;;;;;;;6.63;4.38;;;;;;;;;;2587333;23;20369;-83
2022/05/03 06:45:07;;;;;;;7.57;4.93;;;;;;;;;;2587111;23;20434;-83
2022/05/03 06:46:13;;;;;;;6.35;4.55;;;;;;;;;;2587341;23;19996;-82
2022/05/03 06:47:39;;;;;;;7.28;4.97;;;;;;;;;;2569504;23;20083;-82
2022/05/03 06:48:44;;;;;;;7.65;4.40;;;;;;;;;;2579501;23;20398;-83
2022/05/03 06:51:35;;;;;;;8.52;5.60;;;;;;;;;;2563356;23;20314;-83
2022/05/03 06:52:38;;;;;;;7.70;4.75;;;;;;;;;;2569740;23;20295;-82
2022/05/03 06:53:45;;;;;;;8.13;4.30;;;;;;;;;;2570465;23;20411;-82
2022/05/03 06:54:54;;;;;;;7.07;4.30;;;;;;;;;;2582460;23;20326;-84
2022/05/03 06:56:07;;;;;;;;;;;;;;;;;;;;;
2022/05/03 06:57:33;;;;;;;6.38;4.63;;;;;;;;;;2579134;23;20050;-82
2022/05/03 06:58:33;;;;;;;5.68;3.95;;;;;;;;;;2587079;23;20331;-82
2022/05/03 06:59:34;;;;;;;;;;;;;;;;;;2584012;23;20004;-81
2022/05/03 07:00:55;;;;;;;7.73;4.43;;;;;;;;;;2587806;23;19904;-83
2022/05/03 07:02:35;;;;;;;9.30;5.55;;;;;;;;;;2583659;23;20000;-82
2022/05/03 07:03:51;;;;;;;5.93;4.32;;;;;;;;;;2588414;23;19992;-82
2022/05/03 07:04:59;;;;;;;6.10;4.25;;;;;;;;;;2587341;23;20050;-82
2022/05/03 07:06:00;;;;;;;8.15;4.90;;;;;;;;;;2582865;23;20030;-82
2022/05/03 07:08:35;;;;;;;6.40;4.15;;;;;;;;;;2543043;23;19916;-83
2022/05/03 07:09:36;;;;;;;6.13;4.47;;;;;;;;;;2569863;23;20087;-82
2022/05/03 07:10:44;;;;;;;9.45;5.05;;;;;;;;;;2573948;23;19996;-82
2022/05/03 07:11:54;;;;;;;7.80;3.88;;;;;;;;;;2587329;23;20406;-82
2022/05/03 07:13:02;;;;;;;8.60;4.82;;;;;;;;;;2587499;23;20000;-81
2022/05/03 07:14:10;;;;;;;6.55;4.65;;;;;;;;;;2573621;23;20000;-81
2022/05/03 07:15:20;;;;;;;7.78;4.47;;;;;;;;;;2575590;23;20024;-84
2022/05/03 07:16:30;;;;;;;8.10;4.80;;;;;;;;;;2587249;23;20441;-81
2022/05/03 07:23:21;;;;;;;4.88;3.05;;;;;;;;;;2587063;23;20008;-83
2022/05/03 07:24:33;;;;;;;5.55;3.47;;;;;;;;;;2586796;23;20004;-84
2022/05/03 07:25:38;;;;;;;4.88;3.72;;;;;;;;;;2583099;23;20429;-82
2022/05/03 07:26:51;;;;;;;;;;;;;;;;;;;;;
2022/05/03 07:27:54;;;;;;;5.53;3.53;;;;;;;;;;2587055;23;19988;-82
2022/05/03 07:29:07;;;;;;;7.28;4.65;;;;;;;;;;2587012;23;20000;-82
2022/05/03 07:30:13;;;;;;;5.75;4.13;;;;;;;;;;2573655;23;20004;-83
2022/05/03 07:31:15;;;;;;;5.38;3.67;;;;;;;;;;2574824;23;20022;-81
2022/05/03 07:32:19;;;;;;;4.95;3.40;;;;;;;;;;2570024;23;19997;-82
2022/05/03 07:33:19;;;;;;;3.97;3.42;;;;;;;;;;2574662;23;20072;-82